.
WxDataArchive / Data Records for 2015-11-21
2015-11-20 November 2015 2015-11-22

Data Records for Saturday, 21 November 2015

Time	Temp	Chill	HIndex	Humid	Dewpt	 Wind 	HiWind	WindDir	Rain 	Barom
-----	----	-----	------	-----	-----	------	------	-------	-----	-----
00:00	38.2	38.2	38.2	64	27.1	0	1	90	0.00	30.213 
00:05	38.0	38.0	38.0	65	27.3	0	4	45	0.00	30.213 
00:10	37.8	37.8	37.8	68	28.2	0	2	45	0.00	30.213 
00:15	37.5	37.5	37.5	70	28.6	1	3	22	0.00	30.214 
00:20	36.9	36.9	36.9	72	28.7	0	3	315	0.00	30.214 
00:25	36.6	36.6	36.6	74	29.1	0	1	315	0.00	30.214 
00:30	36.3	36.3	36.3	76	29.5	0	3	315	0.00	30.230 
00:35	35.9	35.9	35.9	77	29.4	0	2	315	0.00	30.230 
00:40	35.5	35.5	35.5	79	29.6	0	3	315	0.00	30.230 
00:45	35.2	35.2	35.2	80	29.7	0	5	292	0.00	30.230 
00:50	34.9	34.9	34.9	81	29.7	0	2	292	0.00	30.230 
00:55	34.6	34.6	34.6	83	30.0	1	3	292	0.00	30.230 
01:00	34.3	34.3	34.3	84	30.0	0	3	292	0.00	30.233 
01:05	34.1	34.1	34.1	85	30.1	0	2	292	0.00	30.233 
01:10	34.0	34.0	34.0	85	30.0	0	3	292	0.00	30.233 
01:15	34.0	34.0	34.0	86	30.3	0	2	292	0.00	30.228 
01:20	33.8	33.8	33.8	87	30.3	0	1	292	0.00	30.228 
01:25	33.8	33.8	33.8	87	30.3	0	2	292	0.00	30.228 
01:30	33.7	33.7	33.7	88	30.5	0	2	292	0.00	30.220 
01:35	33.7	33.7	33.7	88	30.5	0	3	292	0.00	30.220 
01:40	33.7	33.7	33.7	88	30.5	0	2	315	0.00	30.220 
01:45	33.7	33.7	33.7	89	30.8	0	4	315	0.00	30.215 
01:50	33.5	33.5	33.5	89	30.6	0	4	338	0.00	30.215 
01:55	33.5	33.5	33.5	89	30.6	0	3	68	0.00	30.215 
02:00	33.5	33.5	33.5	89	30.6	0	2	0	0.00	30.211 
02:05	33.4	33.4	33.4	89	30.5	1	4	315	0.00	30.211 
02:10	33.2	33.2	33.2	89	30.3	0	3	292	0.00	30.211 
02:15	33.2	33.2	33.2	89	30.3	0	1	338	0.00	30.216 
02:20	33.2	33.2	33.2	90	30.6	0	3	338	0.00	30.216 
02:25	33.2	33.2	33.2	90	30.6	0	4	135	0.00	30.216 
02:30	33.2	33.2	33.2	90	30.6	0	1	135	0.00	30.205 
02:35	33.2	33.2	33.2	90	30.6	0	2	315	0.00	30.205 
02:40	33.1	33.1	33.1	89	30.2	1	2	315	0.00	30.205 
02:45	33.1	33.1	33.1	90	30.5	0	2	90	0.00	30.210 
02:50	33.2	33.2	33.2	89	30.3	0	4	90	0.00	30.210 
02:55	33.2	33.2	33.2	89	30.3	0	2	68	0.00	30.210 
03:00	33.2	33.2	33.2	89	30.3	0	2	68	0.00	30.203 
03:05	33.4	33.4	33.4	89	30.5	1	6	68	0.00	30.203 
03:10	33.4	33.4	33.4	89	30.5	0	3	158	0.00	30.203 
03:15	33.4	33.4	33.4	89	30.5	1	4	90	0.00	30.201 
03:20	33.4	33.4	33.4	89	30.5	0	3	45	0.00	30.201 
03:25	33.5	33.5	33.5	88	30.3	0	3	90	0.00	30.201 
03:30	33.5	33.5	33.5	88	30.3	1	4	112	0.00	30.187 
03:35	33.5	33.5	33.5	88	30.3	1	5	112	0.00	30.187 
03:40	33.5	33.5	33.5	88	30.3	1	3	45	0.00	30.187 
03:45	33.5	33.5	33.5	88	30.3	1	4	112	0.00	30.186 
03:50	33.5	33.5	33.5	87	30.1	1	5	112	0.00	30.186 
03:55	33.5	33.5	33.5	87	30.1	1	5	90	0.00	30.186 
04:00	33.7	33.7	33.7	87	30.3	1	5	112	0.00	30.180 
04:05	33.7	33.7	33.7	87	30.3	1	3	112	0.00	30.180 
04:10	33.7	33.7	33.7	87	30.3	1	6	90	0.00	30.180 
04:15	33.7	33.7	33.7	86	30.0	2	6	90	0.00	30.168 
04:20	33.7	33.7	33.7	86	30.0	2	6	112	0.00	30.168 
04:25	33.7	33.7	33.7	86	30.0	1	4	112	0.00	30.168 
04:30	33.7	33.7	33.7	85	29.7	1	7	112	0.00	30.156 
04:35	33.7	33.7	33.7	85	29.7	1	6	112	0.00	30.156 
04:40	33.7	33.7	33.7	85	29.7	2	7	90	0.00	30.156 
04:45	33.7	30.0	33.7	84	29.4	4	9	112	0.00	30.139 
04:50	33.7	33.7	33.7	85	29.7	3	9	112	0.00	30.139 
04:55	33.7	33.7	33.7	85	29.7	2	6	112	0.00	30.139 
05:00	33.5	33.5	33.5	85	29.5	3	9	90	0.00	30.128 
05:05	33.5	29.8	33.5	85	29.5	4	11	112	0.00	30.128 
05:10	33.5	33.5	33.5	85	29.5	3	7	112	0.00	30.128 
05:15	33.5	33.5	33.5	85	29.5	2	10	90	0.00	30.121 
05:20	33.5	33.5	33.5	85	29.5	2	9	112	0.00	30.121 
05:25	33.5	33.5	33.5	85	29.5	3	9	90	0.00	30.121 
05:30	33.5	33.5	33.5	84	29.2	3	7	112	0.00	30.109 
05:35	33.5	29.8	33.5	84	29.2	4	13	112	0.00	30.109 
05:40	33.5	33.5	33.5	84	29.2	1	6	90	0.00	30.109 
05:45	33.5	33.5	33.5	84	29.2	2	7	90	0.00	30.109 
05:50	33.5	33.5	33.5	84	29.2	2	8	90	0.00	30.109 
05:55	33.5	33.5	33.5	84	29.2	2	5	90	0.00	30.109 
06:00	33.5	33.5	33.5	84	29.2	2	7	112	0.00	30.093 
06:05	33.5	33.5	33.5	83	28.9	3	9	90	0.00	30.093 
06:10	33.5	33.5	33.5	84	29.2	1	8	90	0.00	30.093 
06:15	33.5	33.5	33.5	84	29.2	3	11	90	0.00	30.080 
06:20	33.5	33.5	33.5	83	28.9	2	8	90	0.00	30.080 
06:25	33.5	33.5	33.5	83	28.9	3	6	112	0.00	30.080 
06:30	33.5	33.5	33.5	83	28.9	2	6	112	0.00	30.074 
06:35	33.5	33.5	33.5	83	28.9	1	6	112	0.00	30.074 
06:40	33.5	33.5	33.5	83	28.9	0	4	90	0.00	30.074 
06:45	33.7	33.7	33.7	83	29.1	1	4	112	0.00	30.078 
06:50	33.7	33.7	33.7	82	28.8	0	4	112	0.00	30.078 
06:55	33.7	33.7	33.7	82	28.8	1	4	90	0.00	30.078 
07:00	33.7	33.7	33.7	81	28.5	1	5	90	0.00	30.086 
07:05	33.8	33.8	33.8	81	28.6	1	4	90	0.00	30.086 
07:10	33.8	33.8	33.8	81	28.6	0	4	45	0.00	30.086 
07:15	33.8	33.8	33.8	81	28.6	1	4	22	0.00	30.079 
07:20	33.8	33.8	33.8	81	28.6	1	6	90	0.00	30.079 
07:25	33.8	33.8	33.8	81	28.6	2	7	90	0.00	30.079 
07:30	33.8	33.8	33.8	81	28.6	3	14	112	0.00	30.062 
07:35	33.8	33.8	33.8	81	28.6	1	5	112	0.00	30.062 
07:40	33.8	33.8	33.8	81	28.6	2	6	90	0.00	30.062 
07:45	33.8	33.8	33.8	81	28.6	1	6	90	0.00	30.072 
07:50	33.8	33.8	33.8	81	28.6	2	9	90	0.00	30.072 
07:55	33.8	33.8	33.8	81	28.6	0	2	90	0.00	30.072 
08:00	33.8	33.8	33.8	81	28.6	1	7	112	0.00	30.065 
08:05	33.8	33.8	33.8	81	28.6	1	3	22	0.00	30.065 
08:10	33.8	33.8	33.8	81	28.6	2	7	90	0.00	30.065 
08:15	34.0	34.0	34.0	81	28.8	1	7	112	0.00	30.063 
08:20	34.0	34.0	34.0	81	28.8	2	7	45	0.00	30.063 
08:25	34.0	34.0	34.0	81	28.8	1	6	112	0.00	30.063 
08:30	34.0	34.0	34.0	80	28.5	2	10	90	0.00	30.050 
08:35	34.0	34.0	34.0	81	28.8	1	4	135	0.00	30.050 
08:40	34.1	34.1	34.1	81	28.9	2	4	112	0.00	30.050 
08:45	34.1	34.1	34.1	81	28.9	1	6	112	0.00	30.048 
08:50	34.1	34.1	34.1	81	28.9	1	4	112	0.00	30.048 
08:55	34.1	34.1	34.1	81	28.9	2	5	112	0.00	30.048 
09:00	34.1	34.1	34.1	81	28.9	2	8	90	0.00	30.027 
09:05	34.1	30.5	34.1	81	28.9	4	11	90	0.00	30.027 
09:10	34.0	34.0	34.0	81	28.8	2	9	112	0.00	30.027 
09:15	34.1	34.1	34.1	81	28.9	2	10	112	0.00	30.014 
09:20	34.1	34.1	34.1	81	28.9	1	7	112	0.00	30.014 
09:25	34.1	34.1	34.1	81	28.9	2	9	112	0.00	30.014 
09:30	34.3	34.3	34.3	81	29.1	3	7	90	0.00	29.993 
09:35	34.1	34.1	34.1	81	28.9	2	9	90	0.00	29.993 
09:40	34.3	34.3	34.3	81	29.1	2	11	90	0.00	29.993 
09:45	34.3	34.3	34.3	81	29.1	1	5	90	0.00	29.996 
09:50	34.3	34.3	34.3	81	29.1	1	6	112	0.00	29.996 
09:55	34.4	34.4	34.4	81	29.2	2	7	90	0.00	29.996 
10:00	34.4	34.4	34.4	82	29.5	1	5	90	0.00	29.981 
10:05	34.6	34.6	34.6	82	29.7	1	5	90	0.00	29.981 
10:10	34.6	34.6	34.6	81	29.4	1	6	90	0.00	29.981 
10:15	34.7	34.7	34.7	82	29.8	1	6	90	0.00	29.974 
10:20	34.9	34.9	34.9	81	29.7	1	6	90	0.00	29.974 
10:25	34.9	34.9	34.9	81	29.7	0	3	45	0.00	29.974 
10:30	35.0	35.0	35.0	82	30.1	0	3	22	0.00	29.963 
10:35	35.2	35.2	35.2	82	30.3	1	5	90	0.00	29.963 
10:40	35.3	35.3	35.3	82	30.4	2	7	112	0.00	29.963 
10:45	35.5	35.5	35.5	82	30.6	1	10	90	0.00	29.949 
10:50	35.8	35.8	35.8	82	30.9	1	5	90	0.00	29.949 
10:55	35.9	35.9	35.9	82	31.0	0	3	90	0.00	29.949 
11:00	36.0	36.0	36.0	82	31.0	1	5	90	0.00	29.921 
11:05	36.2	36.2	36.2	82	31.2	1	3	90	0.00	29.921 
11:10	36.3	36.3	36.3	82	31.3	1	5	112	0.00	29.921 
11:15	36.2	36.2	36.2	83	31.5	1	5	112	0.00	29.907 
11:20	35.9	35.9	35.9	84	31.5	0	3	135	0.00	29.907 
11:25	35.9	35.9	35.9	84	31.5	1	2	90	0.00	29.907 
11:30	35.8	35.8	35.8	84	31.4	0	2	90	0.00	29.903 
11:35	35.6	35.6	35.6	85	31.5	0	1	90	0.00	29.903 
11:40	35.6	35.6	35.6	85	31.5	0	3	68	0.00	29.903 
11:45	35.6	35.6	35.6	85	31.5	1	3	45	0.00	29.887 
11:50	35.5	35.5	35.5	85	31.4	0	3	0	0.00	29.887 
11:55	35.5	35.5	35.5	86	31.7	1	4	0	0.00	29.887 
12:00	35.5	35.5	35.5	86	31.7	0	2	90	0.00	29.860 
12:05	35.3	35.3	35.3	86	31.5	1	4	90	0.00	29.860 
12:10	35.3	35.3	35.3	87	31.8	1	5	0	0.00	29.860 
12:15	35.3	35.3	35.3	87	31.8	1	5	90	0.00	29.848 
12:20	35.3	35.3	35.3	87	31.8	1	5	112	0.00	29.848 
12:25	35.3	35.3	35.3	88	32.1	1	4	112	0.00	29.848 
12:30	35.3	35.3	35.3	88	32.1	1	4	112	0.00	29.845 
12:35	35.0	35.0	35.0	88	31.8	1	5	112	0.00	29.845 
12:40	34.7	34.7	34.7	88	31.5	1	7	112	0.01	29.845 
12:45	34.4	34.4	34.4	88	31.2	2	7	112	0.00	29.829 
12:50	34.1	34.1	34.1	89	31.2	2	5	112	0.00	29.829 
12:55	33.7	33.7	33.7	89	30.8	2	5	90	0.00	29.829 
13:00	33.5	33.5	33.5	90	30.9	1	3	90	0.00	29.821 
13:05	33.2	33.2	33.2	90	30.6	1	5	112	0.00	29.821 
13:10	33.1	33.1	33.1	91	30.8	1	4	112	0.00	29.821 
13:15	33.1	33.1	33.1	91	30.8	1	3	112	0.00	29.815 
13:20	32.9	32.9	32.9	91	30.6	1	4	112	0.00	29.815 
13:25	32.8	32.8	32.8	91	30.5	1	4	90	0.00	29.815 
13:30	32.8	32.8	32.8	92	30.7	1	5	90	0.00	29.799 
13:35	32.7	32.7	32.7	92	30.6	1	4	112	0.00	29.799 
13:40	32.7	32.7	32.7	92	30.6	1	4	112	0.00	29.799 
13:45	32.7	32.7	32.7	92	30.6	0	2	112	0.00	29.783 
13:50	32.7	32.7	32.7	92	30.6	0	3	112	0.00	29.783 
13:55	32.7	32.7	32.7	92	30.6	1	3	112	0.00	29.783 
14:00	32.7	32.7	32.7	93	30.9	0	2	112	0.00	29.769 
14:05	32.7	32.7	32.7	93	30.9	0	2	112	0.00	29.769 
14:10	32.7	32.7	32.7	93	30.9	1	4	90	0.00	29.769 
14:15	32.7	32.7	32.7	93	30.9	0	4	90	0.00	29.756 
14:20	32.5	32.5	32.5	93	30.7	0	2	90	0.00	29.756 
14:25	32.5	32.5	32.5	93	30.7	0	0	---	0.00	29.756 
14:30	32.7	32.7	32.7	93	30.9	0	0	---	0.00	29.744 
14:35	32.7	32.7	32.7	93	30.9	0	0	---	0.00	29.744 
14:40	32.7	32.7	32.7	93	30.9	0	0	---	0.00	29.744 
14:45	32.7	32.7	32.7	93	30.9	0	0	---	0.00	29.748 
14:50	32.7	32.7	32.7	93	30.9	0	0	---	0.00	29.748 
14:55	32.7	32.7	32.7	93	30.9	0	0	---	0.00	29.748 
15:00	32.7	32.7	32.7	93	30.9	0	0	---	0.00	29.749 
15:05	32.8	32.8	32.8	93	31.0	0	0	---	0.00	29.749 
15:10	32.8	32.8	32.8	93	31.0	0	0	---	0.00	29.749 
15:15	32.8	32.8	32.8	93	31.0	0	0	---	0.00	29.761 
15:20	32.8	32.8	32.8	93	31.0	0	0	---	0.00	29.761 
15:25	32.8	32.8	32.8	94	31.3	0	0	---	0.00	29.761 
15:30	32.8	32.8	32.8	94	31.3	0	0	---	0.00	29.767 
15:35	32.7	32.7	32.7	94	31.2	0	0	---	0.00	29.767 
15:40	32.7	32.7	32.7	94	31.2	0	0	---	0.00	29.767 
15:45	32.7	32.7	32.7	94	31.2	0	0	---	0.00	29.770 
15:50	32.7	32.7	32.7	94	31.2	0	0	---	0.00	29.770 
15:55	32.7	32.7	32.7	94	31.2	0	0	---	0.00	29.770 
16:00	32.7	32.7	32.7	94	31.2	0	0	---	0.00	29.769 
16:05	32.7	32.7	32.7	94	31.2	0	0	---	0.00	29.769 
16:10	32.7	32.7	32.7	94	31.2	0	0	---	0.00	29.769 
16:15	32.7	32.7	32.7	94	31.2	0	0	---	0.00	29.765 
16:20	32.5	32.5	32.5	94	31.0	0	0	---	0.00	29.765 
16:25	32.5	32.5	32.5	94	31.0	0	1	90	0.00	29.765 
16:30	32.5	32.5	32.5	94	31.0	0	0	---	0.00	29.763 
16:35	32.5	32.5	32.5	94	31.0	0	2	90	0.00	29.763 
16:40	32.5	32.5	32.5	94	31.0	0	2	22	0.00	29.763 
16:45	32.5	32.5	32.5	94	31.0	0	2	22	0.00	29.766 
16:50	32.5	32.5	32.5	94	31.0	0	2	22	0.00	29.766 
16:55	32.4	32.4	32.4	94	30.9	0	0	---	0.00	29.766 
17:00	32.4	32.4	32.4	94	30.9	0	2	315	0.00	29.770 
17:05	32.4	32.4	32.4	94	30.9	0	3	315	0.00	29.770 
17:10	32.4	32.4	32.4	94	30.9	0	1	315	0.00	29.770 
17:15	32.4	32.4	32.4	94	30.9	0	2	315	0.00	29.773 
17:20	32.4	32.4	32.4	94	30.9	1	4	292	0.00	29.773 
17:25	32.4	32.4	32.4	94	30.9	0	2	315	0.00	29.773 
17:30	32.4	32.4	32.4	94	30.9	0	0	---	0.00	29.786 
17:35	32.4	32.4	32.4	94	30.9	0	3	292	0.00	29.786 
17:40	32.4	32.4	32.4	94	30.9	0	2	292	0.00	29.786 
17:45	32.5	32.5	32.5	94	31.0	0	3	292	0.00	29.799 
17:50	32.5	32.5	32.5	94	31.0	0	3	292	0.00	29.799 
17:55	32.4	32.4	32.4	94	30.9	1	4	292	0.00	29.799 
18:00	32.4	32.4	32.4	94	30.9	0	2	292	0.00	29.810 
18:05	32.2	32.2	32.2	94	30.7	1	3	270	0.00	29.810 
18:10	32.1	32.1	32.1	94	30.6	1	3	292	0.00	29.810 
18:15	31.9	31.9	31.9	94	30.4	0	2	338	0.00	29.825 
18:20	31.9	31.9	31.9	94	30.4	0	3	338	0.00	29.825 
18:25	31.9	31.9	31.9	94	30.4	0	2	338	0.00	29.825 
18:30	31.8	31.8	31.8	94	30.3	1	3	338	0.00	29.839 
18:35	31.5	31.5	31.5	94	30.0	1	5	270	0.00	29.839 
18:40	31.5	31.5	31.5	94	30.0	0	3	270	0.00	29.839 
18:45	31.5	31.5	31.5	94	30.0	0	3	315	0.00	29.855 
18:50	31.5	31.5	31.5	93	29.7	0	3	338	0.00	29.855 
18:55	31.3	31.3	31.3	93	29.5	1	4	292	0.00	29.855 
19:00	31.2	31.2	31.2	93	29.4	0	2	292	0.00	29.868 
19:05	31.2	31.2	31.2	93	29.4	0	2	315	0.00	29.868 
19:10	31.2	31.2	31.2	93	29.4	0	2	292	0.00	29.868 
19:15	31.0	31.0	31.0	93	29.2	0	0	---	0.00	29.881 
19:20	31.0	31.0	31.0	93	29.2	0	0	---	0.00	29.881 
19:25	31.0	31.0	31.0	93	29.2	0	0	---	0.00	29.881 
19:30	30.9	30.9	30.9	93	29.1	0	0	---	0.00	29.889 
19:35	30.9	30.9	30.9	93	29.1	0	0	---	0.00	29.889 
19:40	30.9	30.9	30.9	93	29.1	0	0	---	0.00	29.889 
19:45	30.7	30.7	30.7	93	28.9	0	0	---	0.00	29.898 
19:50	30.7	30.7	30.7	93	28.9	0	0	---	0.00	29.898 
19:55	30.7	30.7	30.7	93	28.9	0	0	---	0.00	29.898 
20:00	30.7	30.7	30.7	93	28.9	0	0	---	0.00	29.908 
20:05	30.7	30.7	30.7	93	28.9	0	0	---	0.00	29.908 
20:10	30.6	30.6	30.6	93	28.8	0	0	---	0.00	29.908 
20:15	30.4	30.4	30.4	93	28.6	0	0	---	0.00	29.912 
20:20	30.4	30.4	30.4	93	28.6	0	0	---	0.00	29.912 
20:25	30.3	30.3	30.3	93	28.5	0	0	---	0.00	29.912 
20:30	30.1	30.1	30.1	93	28.3	0	0	---	0.00	29.928 
20:35	30.1	30.1	30.1	93	28.3	0	0	---	0.00	29.928 
20:40	30.3	30.3	30.3	93	28.5	0	0	---	0.00	29.928 
20:45	30.3	30.3	30.3	93	28.5	0	0	---	0.00	29.945 
20:50	30.4	30.4	30.4	93	28.6	0	0	---	0.00	29.945 
20:55	30.4	30.4	30.4	93	28.6	0	0	---	0.00	29.945 
21:00	30.4	30.4	30.4	92	28.4	0	0	---	0.00	29.951 
21:05	30.4	30.4	30.4	92	28.4	0	0	---	0.00	29.951 
21:10	30.4	30.4	30.4	92	28.4	0	0	---	0.00	29.951 
21:15	30.4	30.4	30.4	92	28.4	0	0	---	0.00	29.949 
21:20	30.4	30.4	30.4	92	28.4	0	0	---	0.00	29.949 
21:25	30.4	30.4	30.4	92	28.4	0	0	---	0.00	29.949 
21:30	30.4	30.4	30.4	92	28.4	0	0	---	0.00	29.953 
21:35	30.3	30.3	30.3	91	28.0	0	0	---	0.00	29.953 
21:40	30.1	30.1	30.1	91	27.8	0	0	---	0.00	29.953 
21:45	30.1	30.1	30.1	91	27.8	0	0	---	0.00	29.959 
21:50	30.0	30.0	30.0	91	27.7	0	0	---	0.00	29.959 
21:55	29.8	29.8	29.8	91	27.5	0	0	---	0.00	29.959 
22:00	29.7	29.7	29.7	90	27.1	0	0	---	0.00	29.976 
22:05	29.7	29.7	29.7	90	27.1	0	0	---	0.00	29.976 
22:10	29.5	29.5	29.5	90	26.9	0	0	---	0.00	29.976 
22:15	29.4	29.4	29.4	90	26.8	0	0	---	0.00	29.989 
22:20	29.3	29.3	29.3	89	26.5	0	0	---	0.00	29.989 
22:25	29.1	29.1	29.1	89	26.3	0	0	---	0.00	29.989 
22:30	29.1	29.1	29.1	89	26.3	0	0	---	0.00	29.995 
22:35	29.1	29.1	29.1	90	26.5	0	0	---	0.00	29.995 
22:40	29.3	29.3	29.3	90	26.7	0	0	---	0.00	29.995 
22:45	29.3	29.3	29.3	90	26.7	0	0	---	0.00	30.004 
22:50	29.4	29.4	29.4	90	26.8	0	0	---	0.00	30.004 
22:55	29.4	29.4	29.4	90	26.8	0	0	---	0.00	30.004 
23:00	29.4	29.4	29.4	90	26.8	0	0	---	0.00	30.006 
23:05	29.4	29.4	29.4	90	26.8	0	0	---	0.00	30.006 
23:10	29.4	29.4	29.4	90	26.8	0	0	---	0.00	30.006 
23:15	29.4	29.4	29.4	90	26.8	0	0	---	0.00	30.017 
23:20	29.4	29.4	29.4	90	26.8	0	0	---	0.00	30.017 
23:25	29.4	29.4	29.4	89	26.6	0	0	---	0.00	30.017 
23:30	29.4	29.4	29.4	89	26.6	0	0	---	0.00	30.027 
23:35	29.4	29.4	29.4	89	26.6	0	0	---	0.00	30.027 
23:40	29.4	29.4	29.4	89	26.6	0	0	---	0.00	30.027 
23:45	29.4	29.4	29.4	89	26.6	0	0	---	0.00	30.027 
23:50	29.4	29.4	29.4	89	26.6	0	0	---	0.00	30.027 
23:55	29.3	29.3	29.3	89	26.5	0	0	---	0.00	30.027 

CoCoRaHS
IN-AL-39
A2 Web Hosting
Creative Commons License
GoDaddy
search engine by freefind advanced

loaded 2018-11-13 21:21:47 • last modified 2010-11-18 10:43:29
Privacy PolicyDisclaimer
• wx.awcolley.com is powered by PmWiki v.2002016 •
• all content (unless otherwise noted) © 2018 A W Colley